LRSB

Details ICAO LRSB (SBZ)
Name SIBIU
Region Romania
Timezone Europe/Bucharest (UTC+3.0)
Plans Departing 76
Arriving 100
Stats Elevation 1,496 ft / 456 m (AMSL)
Location 45.785596° 24.091341°
Runways 1
Magnetic Variation 5.508° E
Sunrise 2018-05-25 02:43:51 UTC / 2018-05-25 05:43:51 Local
Sunset 2018-05-25 18:00:09 UTC / 2018-05-25 21:00:09 Local
Advertisement - Login to hide

Runways

ID Width Length Bearing (true) Bearing (mag) Surface Threshold Offset Overrun Length
09 98 ft / 30 m 6,500 ft / 1,981 m 91.07° 85.56° Concrete 0 ft / 0 m 0 ft / 0 m
27 98 ft / 30 m 6,500 ft / 1,981 m 271.09° 265.58° Concrete 492 ft / 150 m 0 ft / 0 m

Approach Navaids

Runway Type Ident Frequency Range Bearing (true) Bearing (mag) Slope Elevation
27 Localiser ISB 110.70 MHz 18 nm / 33 km 271.24° 265.73° - 1,495 ft / 456 m (AMSL)
27 Glidescope ISB 110.70 MHz 10 nm / 19 km 272.00° 266.49° 3.00° 1,495 ft / 456 m (AMSL)

Map

Weather


0- 5 10 15 20 25 30 35+ Temperature / ° C

Clouds and Precipitation
Forecast for 2018-05-25 12:00 UTC. Updated 6 hours ago

Ground ~20,000 ft ~40,000 ft Winds

METAR

LRSB 251700Z 26004KT CAVOK 18/14 Q1018

TAF

TAF LRSB 251100Z 2512/2612 12010KT CAVOK TEMPO 2512/2518 SCT030CB PROB30 2512/2517 VRB20G30KT 3000 TSRA BKN010 BKN030 BECMG 2518/2520 VRB04KT

Frequencies

Tower 122.70 MHz TWR
Approach 121.30 MHz PRECISON
Approach 122.70 MHz APP
Warning: Do not use this data for real-world aviation or navigation. No guarantee of current accuracy is given.